Time;durP1;ratioP1;P1;durP2;ratioP2;P2;SDS_P1;SDS_P2;PMS_P1;PMS_P2;Temp;Humidity;BMP_temperature;BMP_pressure;BME280_temperature;BME280_humidity;BME280_pressure;Samples;Min_cycle;Max_cycle;Signal;HPM_P1;HPM_P2
2021/03/17 00:01:26;;;;;;;8.88;4.35;;;;;;;5.35;100.00;99061.01;1737633;82;21086;-49
2021/03/17 00:04:12;;;;;;;12.90;4.78;;;;;;;5.34;100.00;99059.28;1708350;84;21213;-49
2021/03/17 00:06:58;;;;;;;7.72;3.90;;;;;;;5.30;100.00;99070.52;1737664;82;21078;-49
2021/03/17 00:09:44;;;;;;;10.82;4.80;;;;;;;5.28;100.00;99075.00;1708454;84;21764;-49
2021/03/17 00:12:30;;;;;;;8.03;4.72;;;;;;;5.25;100.00;99074.28;1737540;82;21091;-49
2021/03/17 00:15:20;;;;;;;11.57;6.35;;;;;;;5.20;100.00;99063.83;1708472;84;21090;-49
2021/03/17 00:18:08;;;;;;;11.33;5.75;;;;;;;5.20;100.00;99063.83;1737568;82;21066;-49
2021/03/17 00:20:54;;;;;;;12.28;6.12;;;;;;;5.18;100.00;99074.09;1708422;84;21138;-49
2021/03/17 00:23:40;;;;;;;13.20;6.80;;;;;;;5.18;100.00;99074.09;1737677;82;21216;-49
2021/03/17 00:26:28;;;;;;;16.12;8.18;;;;;;;5.19;100.00;99069.19;1708346;84;21137;-49
2021/03/17 00:29:14;;;;;;;19.23;9.60;;;;;;;5.21;100.00;99072.20;1737655;82;21162;-49
2021/03/17 00:32:00;;;;;;;19.50;9.38;;;;;;;5.24;100.00;99071.22;1708377;84;21166;-49
2021/03/17 00:34:47;;;;;;;19.30;9.80;;;;;;;5.25;100.00;99071.63;1737723;82;21463;-49
2021/03/17 00:37:32;;;;;;;25.00;11.05;;;;;;;5.25;100.00;99071.63;1708446;84;21391;-48
2021/03/17 00:40:19;;;;;;;23.47;11.00;;;;;;;5.24;100.00;99075.20;1737498;82;21090;-49
2021/03/17 00:43:05;;;;;;;29.82;13.13;;;;;;;5.20;100.00;99073.60;1708440;84;21121;-49
2021/03/17 00:45:51;;;;;;;27.13;12.82;;;;;;;5.17;100.00;99067.94;1768572;81;21175;-49
2021/03/17 00:48:22;;;;;;;30.32;13.35;;;;;;;5.16;100.00;99075.02;1768018;81;21195;-49
2021/03/17 00:50:51;;;;;;;32.78;13.40;;;;;;;5.15;100.00;99070.64;1767768;81;21804;-48
2021/03/17 00:53:21;;;;;;;35.17;15.30;;;;;;;5.16;100.00;99075.02;1767180;81;21439;-49
2021/03/17 00:55:50;;;;;;;33.78;12.63;;;;;;;5.19;100.00;99075.83;1768651;81;21155;-49
2021/03/17 00:58:35;;;;;;;24.07;9.85;;;;;;;5.19;100.00;99066.08;1768222;81;21491;-49
2021/03/17 01:01:03;;;;;;;30.10;13.35;;;;;;;5.19;100.00;99062.55;1768679;81;21179;-50
2021/03/17 01:03:31;;;;;;;25.25;12.13;;;;;;;5.20;100.00;99072.28;1768532;81;21706;-50
2021/03/17 01:05:59;;;;;;;23.27;11.78;;;;;;;5.20;100.00;99070.47;1768571;81;21124;-50
2021/03/17 01:08:27;;;;;;;23.42;10.93;;;;;;;5.19;100.00;99066.53;1768551;81;21135;-50
2021/03/17 01:10:55;;;;;;;24.35;10.08;;;;;;;5.20;100.00;99062.50;1768565;81;21128;-49
2021/03/17 01:13:22;;;;;;;22.00;12.13;;;;;;;5.21;100.00;99066.03;1768570;81;21130;-50
2021/03/17 01:15:50;;;;;;;26.20;10.72;;;;;;;5.20;100.00;99056.34;1768616;81;21401;-50
2021/03/17 01:18:18;;;;;;;24.90;10.63;;;;;;;5.15;100.00;99060.02;1768539;81;21080;-50
2021/03/17 01:20:49;;;;;;;24.43;10.88;;;;;;;5.14;100.00;99058.28;1768568;81;21083;-50
2021/03/17 01:23:20;;;;;;;26.93;11.40;;;;;;;5.12;100.00;99058.81;1768945;81;21524;-49
2021/03/17 01:25:47;;;;;;;22.67;10.80;;;;;;;5.13;100.00;99056.56;1768542;81;21055;-50
2021/03/17 01:28:15;;;;;;;16.23;9.43;;;;;;;5.11;100.00;99063.73;1768641;81;21386;-50
2021/03/17 01:30:48;;;;;;;20.50;9.78;;;;;;;5.10;100.00;99069.11;1768476;81;21166;-50
2021/03/17 01:33:16;;;;;;;25.17;9.50;;;;;;;5.06;100.00;99060.39;1768630;81;21143;-50
2021/03/17 01:35:46;;;;;;;30.17;10.38;;;;;;;5.04;100.00;99066.23;1768500;81;21591;-49
2021/03/17 01:38:15;;;;;;;23.40;9.15;;;;;;;5.04;100.00;99066.23;1768708;81;21547;-49
2021/03/17 01:40:44;;;;;;;22.85;9.45;;;;;;;5.03;100.00;99063.17;1768497;81;21206;-49
2021/03/17 01:43:13;;;;;;;19.55;8.50;;;;;;;5.03;100.00;99052.55;1768490;81;21161;-48
2021/03/17 01:45:41;;;;;;;17.90;9.18;;;;;;;5.04;100.00;99048.97;1791978;79;21103;-49
2021/03/17 01:48:09;;;;;;;19.73;8.70;;;;;;;5.07;100.00;99047.52;1763425;81;21497;-48
2021/03/17 01:50:41;;;;;;;24.05;8.83;;;;;;;5.12;100.00;99053.50;1775226;80;21079;-49
2021/03/17 01:53:15;;;;;;;14.40;7.65;;;;;;;5.12;100.00;99054.83;1763491;81;21379;-49
2021/03/17 01:55:43;;;;;;;20.62;7.92;;;;;;;5.18;100.00;99056.83;1775111;80;21131;-50
2021/03/17 01:58:11;;;;;;;17.52;7.17;;;;;;;5.21;100.00;99058.91;1763415;81;21049;-49
2021/03/17 02:00:40;;;;;;;13.75;7.28;;;;;;;5.20;100.00;99058.99;1775150;80;21099;-49
2021/03/17 02:03:08;;;;;;;13.48;7.17;;;;;;;5.16;100.00;99061.74;1763376;81;21073;-49
2021/03/17 02:05:42;;;;;;;18.15;7.65;;;;;;;5.16;100.00;99061.74;1775122;80;21364;-49
2021/03/17 02:08:13;;;;;;;19.33;7.27;;;;;;;5.19;100.00;99062.55;1763764;81;21498;-49
2021/03/17 02:10:41;;;;;;;16.02;7.03;;;;;;;5.17;100.00;99059.97;1772868;80;21247;-49
2021/03/17 02:14:06;;;;;;;17.73;7.00;;;;;;;5.10;100.00;99063.32;1763435;81;21557;-49
2021/03/17 02:16:39;;;;;;;23.02;7.35;;;;;;;5.10;100.00;99063.32;1775132;80;21107;-50
2021/03/17 02:19:41;;;;;;;16.30;6.55;;;;;;;5.07;100.00;99069.20;1763440;81;21776;-49
2021/03/17 02:22:40;;;;;;;14.13;5.62;;;;;;;5.09;100.00;99073.55;1775176;80;21083;-50
2021/03/17 02:25:22;;;;;;;16.07;5.25;;;;;;;5.05;100.00;99079.91;1763545;81;21566;-49
2021/03/17 02:28:28;;;;;;;10.10;5.15;;;;;;;5.07;100.00;99082.05;1775412;80;21213;-49
2021/03/17 02:31:48;;;;;;;13.32;5.78;;;;;;;5.07;100.00;99097.98;1726563;81;21045;-49
2021/03/17 02:34:19;;;;;;;15.70;5.50;;;;;;;5.09;100.00;99094.80;1775102;80;21685;-49
2021/03/17 02:36:58;;;;;;;15.80;4.85;;;;;;;5.08;100.00;99094.39;1763624;81;21505;-49
2021/03/17 02:39:30;;;;;;;15.35;4.85;;;;;;;5.10;100.00;99099.19;1774717;80;21165;-49
2021/03/17 02:42:18;;;;;;;16.52;5.12;;;;;;;5.06;100.00;99109.53;1763504;81;21085;-49
2021/03/17 02:45:00;;;;;;;17.52;4.92;;;;;;;5.02;100.00;99102.61;1781747;79;21111;-49
2021/03/17 02:47:32;;;;;;;12.00;4.92;;;;;;;4.96;100.00;99108.14;1796855;79;21359;-49
2021/03/17 02:50:00;;;;;;;14.38;4.55;;;;;;;4.91;100.00;99109.66;1825736;78;21075;-49
2021/03/17 02:52:35;;;;;;;18.62;4.97;;;;;;;4.85;100.00;99110.76;1825653;78;21070;-50
2021/03/17 02:55:04;;;;;;;;;;;;;;;4.77;100.00;99112.84;1828427;78;21111;-49
2021/03/17 02:57:35;;;;;;;9.83;4.15;;;;;;;4.73;100.00;99121.38;1825821;78;20530;-49
2021/03/17 03:00:05;;;;;;;10.60;3.50;;;;;;;4.66;100.00;99120.33;1798528;78;21689;-48
2021/03/17 03:02:33;;;;;;;9.58;3.47;;;;;;;4.61;100.00;99124.94;1825701;78;21163;-50
2021/03/17 03:05:01;;;;;;;5.17;3.37;;;;;;;4.57;100.00;99129.05;1825670;78;21410;-48
2021/03/17 03:07:31;;;;;;;11.22;3.55;;;;;;;4.58;100.00;99120.60;1824983;78;21080;-49
2021/03/17 03:09:59;;;;;;;6.78;3.30;;;;;;;4.55;100.00;99118.06;1825050;78;21488;-49
2021/03/17 03:12:26;;;;;;;8.78;4.05;;;;;;;4.52;100.00;99119.50;1825762;78;21536;-49
2021/03/17 03:14:56;;;;;;;6.53;3.22;;;;;;;4.52;100.00;99126.99;1825628;78;21099;-49
2021/03/17 03:17:23;;;;;;;6.67;3.77;;;;;;;4.53;100.00;99120.79;1825783;78;21131;-49
2021/03/17 03:19:54;;;;;;;9.18;3.50;;;;;;;4.54;100.00;99122.52;1825614;78;21599;-49
2021/03/17 03:22:23;;;;;;;6.35;3.42;;;;;;;4.59;100.00;99131.17;1798482;78;21143;-49
2021/03/17 03:24:51;;;;;;;7.60;3.77;;;;;;;4.63;100.00;99119.11;1825858;78;21460;-49
2021/03/17 03:27:19;;;;;;;6.80;3.80;;;;;;;4.66;100.00;99124.30;1825714;78;21087;-49
2021/03/17 03:29:47;;;;;;;8.68;3.77;;;;;;;4.68;100.00;99134.41;1825862;78;21163;-49
2021/03/17 03:32:14;;;;;;;9.03;4.00;;;;;;;4.70;100.00;99133.44;1825850;78;21496;-49
2021/03/17 03:34:44;;;;;;;8.53;3.95;;;;;;;4.73;100.00;99140.41;1825391;78;21134;-49
2021/03/17 03:37:12;;;;;;;8.33;4.35;;;;;;;4.75;100.00;99135.91;1825657;78;21349;-49
2021/03/17 03:39:40;;;;;;;14.15;4.55;;;;;;;4.79;100.00;99134.89;1825675;78;21115;-49
2021/03/17 03:42:08;;;;;;;5.28;3.58;;;;;;;4.80;100.00;99133.97;1825642;78;21052;-49
2021/03/17 03:44:35;;;;;;;5.42;3.42;;;;;;;4.80;100.00;99133.97;1818612;78;21063;-49
2021/03/17 03:47:03;;;;;;;12.33;4.17;;;;;;;4.82;100.00;99134.77;1810470;79;21106;-49
2021/03/17 03:49:32;;;;;;;9.60;3.75;;;;;;;4.84;100.00;99132.92;1810530;79;21419;-49
2021/03/17 03:52:13;;;;;;;11.08;3.60;;;;;;;4.89;100.00;99127.45;1762349;81;21089;-49
2021/03/17 03:54:53;;;;;;;8.15;4.15;;;;;;;4.97;100.00;99130.67;1807355;79;21102;-49
2021/03/17 03:57:34;;;;;;;6.15;3.90;;;;;;;4.97;100.00;99130.67;1742927;79;21468;-49
2021/03/17 04:00:07;;;;;;;8.43;3.40;;;;;;;4.98;100.00;99120.92;1762428;81;21188;-49
2021/03/17 04:02:41;;;;;;;7.12;3.00;;;;;;;4.95;100.00;99131.64;1807394;79;25601;-49
2021/03/17 04:05:12;;;;;;;6.03;3.33;;;;;;;5.03;100.00;99132.23;1807254;79;21155;-49
2021/03/17 04:07:44;;;;;;;7.90;2.65;;;;;;;5.03;100.00;99132.23;1762493;81;21094;-49
2021/03/17 04:10:13;;;;;;;6.00;3.47;;;;;;;5.08;100.00;99135.58;1807281;79;21170;-49
2021/03/17 04:12:41;;;;;;;6.78;2.90;;;;;;;5.13;100.00;99135.41;1762469;81;21085;-49
2021/03/17 04:15:12;;;;;;;6.55;3.30;;;;;;;5.12;100.00;99139.84;1807337;79;21360;-49
2021/03/17 04:17:47;;;;;;;8.13;2.95;;;;;;;5.18;100.00;99144.50;1807294;79;21095;-49
2021/03/17 04:20:18;;;;;;;8.58;3.20;;;;;;;5.18;100.00;99144.50;1762429;81;21145;-49
2021/03/17 04:22:45;;;;;;;12.30;3.35;;;;;;;5.20;100.00;99134.23;1807335;79;21539;-49
2021/03/17 04:25:16;;;;;;;10.10;3.50;;;;;;;5.20;100.00;99134.23;1807382;79;21153;-49
2021/03/17 04:27:46;;;;;;;12.95;3.70;;;;;;;5.16;100.00;99133.47;1762301;81;21415;-49
2021/03/17 04:30:15;;;;;;;7.58;3.67;;;;;;;5.11;100.00;99135.45;1807355;79;21582;-49
2021/03/17 04:32:45;;;;;;;6.47;3.10;;;;;;;5.13;100.00;99141.57;1807255;79;21114;-49
2021/03/17 04:35:13;;;;;;;6.97;3.77;;;;;;;5.11;100.00;99138.11;1807318;79;21162;-49
2021/03/17 04:37:43;;;;;;;10.32;3.20;;;;;;;5.11;100.00;99132.80;1762467;81;21181;-49
2021/03/17 04:40:12;;;;;;;8.45;3.25;;;;;;;5.12;100.00;99133.20;1806780;79;21360;-49
2021/03/17 04:42:40;;;;;;;7.40;3.20;;;;;;;5.14;100.00;99126.51;1762333;81;21131;-49
2021/03/17 04:45:10;;;;;;;6.90;3.20;;;;;;;5.14;100.00;99141.97;1802814;79;21070;-49
2021/03/17 04:47:42;;;;;;;11.12;3.33;;;;;;;5.16;100.00;99145.43;1787293;80;21066;-49
2021/03/17 04:50:12;;;;;;;8.83;4.20;;;;;;;5.21;100.00;99152.39;1787409;79;21036;-49
2021/03/17 04:52:40;;;;;;;8.15;4.10;;;;;;;5.24;100.00;99157.58;1787436;80;22238;-49
2021/03/17 04:55:10;;;;;;;12.30;3.70;;;;;;;5.22;100.00;99158.95;1787228;80;21093;-49
2021/03/17 04:57:40;;;;;;;8.68;3.55;;;;;;;5.23;100.00;99159.35;1787520;79;21672;-49
2021/03/17 05:00:11;;;;;;;5.47;3.65;;;;;;;5.23;100.00;99158.50;1787452;80;21124;-49
2021/03/17 05:02:40;;;;;;;6.05;2.90;;;;;;;5.26;100.00;99167.67;1787228;80;21068;-49
2021/03/17 05:05:09;;;;;;;7.62;3.10;;;;;;;5.28;100.00;99168.48;1787303;80;21198;-49
2021/03/17 05:07:38;;;;;;;6.33;2.83;;;;;;;5.29;100.00;99166.23;1787275;80;21462;-49
2021/03/17 05:10:09;;;;;;;8.78;3.42;;;;;;;5.33;100.00;99170.49;1787338;80;21144;-49
2021/03/17 05:12:38;;;;;;;6.40;3.30;;;;;;;5.38;100.00;99171.66;1787267;80;21053;-49
2021/03/17 05:15:08;;;;;;;7.08;3.52;;;;;;;5.41;100.00;99167.06;1787077;80;21121;-49
2021/03/17 05:17:38;;;;;;;7.03;3.90;;;;;;;5.48;100.00;99174.81;1786388;80;21532;-49
2021/03/17 05:20:09;;;;;;;7.35;3.35;;;;;;;5.53;100.00;99168.85;1787246;80;21147;-50
2021/03/17 05:22:37;;;;;;;8.33;3.98;;;;;;;5.62;100.00;99164.96;1787314;79;21498;-49
2021/03/17 05:25:06;;;;;;;10.68;4.05;;;;;;;5.79;100.00;99161.61;1787280;79;21137;-49
2021/03/17 05:27:34;;;;;;;9.45;4.00;;;;;;;5.98;100.00;99159.93;1787362;80;21532;-49
2021/03/17 05:30:05;;;;;;;7.97;4.08;;;;;;;6.22;100.00;99160.34;1787293;80;21372;-49
2021/03/17 05:32:33;;;;;;;6.75;3.47;;;;;;;6.39;100.00;99170.26;1787236;80;21152;-49
2021/03/17 05:35:05;;;;;;;9.55;3.40;;;;;;;6.54;100.00;99178.92;1787268;80;21050;-49
2021/03/17 05:37:33;;;;;;;11.78;3.33;;;;;;;6.59;100.00;99180.91;1787422;80;21235;-48
2021/03/17 05:40:04;;;;;;;5.70;3.17;;;;;;;6.62;100.00;99183.03;1787249;80;21132;-49
2021/03/17 05:42:31;;;;;;;9.28;3.42;;;;;;;6.63;100.00;99191.42;1787330;80;21200;-49
2021/03/17 05:44:59;;;;;;;7.17;3.52;;;;;;;6.61;100.00;99189.30;1769040;80;21111;-49
2021/03/17 05:47:26;;;;;;;6.10;3.50;;;;;;;6.71;100.00;99185.28;1792887;80;21152;-50
2021/03/17 05:49:54;;;;;;;8.43;3.35;;;;;;;7.05;100.00;99177.12;1809227;79;21115;-49
2021/03/17 05:52:22;;;;;;;7.05;2.87;;;;;;;7.45;100.00;99173.05;1790615;80;21181;-49
2021/03/17 05:54:50;;;;;;;4.60;3.00;;;;;;;7.74;100.00;99167.66;1809292;79;21694;-49
2021/03/17 05:57:18;;;;;;;6.35;3.02;;;;;;;8.05;100.00;99180.42;1809293;79;21055;-49
2021/03/17 05:59:46;;;;;;;7.42;2.98;;;;;;;8.35;100.00;99182.51;1809454;79;21137;-49
2021/03/17 06:02:13;;;;;;;7.03;3.20;;;;;;;8.52;100.00;99190.56;1809324;79;21197;-49
2021/03/17 06:04:41;;;;;;;7.50;2.85;;;;;;;8.70;100.00;99201.20;1784772;79;21031;-49
2021/03/17 06:07:24;;;;;;;10.45;2.95;;;;;;;8.75;100.00;99200.52;1809371;79;21344;-49
2021/03/17 06:09:53;;;;;;;9.98;2.60;;;;;;;8.68;100.00;99215.12;1809356;79;21141;-49
2021/03/17 06:12:22;;;;;;;5.58;2.90;;;;;;;8.55;100.00;99202.88;1809331;79;21063;-49
2021/03/17 06:14:51;;;;;;;10.20;2.90;;;;;;;8.45;100.00;99211.80;1809371;79;21063;-49
2021/03/17 06:17:22;;;;;;;9.45;3.00;;;;;;;8.30;100.00;99220.11;1809483;79;21478;-48
2021/03/17 06:19:55;;;;;;;10.45;3.45;;;;;;;8.21;100.00;99218.77;1809381;79;21420;-50
2021/03/17 06:22:22;;;;;;;5.92;2.85;;;;;;;8.22;100.00;99212.48;1809346;79;21227;-49
2021/03/17 06:24:50;;;;;;;8.35;2.70;;;;;;;8.26;100.00;99219.39;1809305;79;21131;-50
2021/03/17 06:27:17;;;;;;;5.42;2.90;;;;;;;8.21;100.00;99218.77;1809379;79;21134;-50
2021/03/17 06:29:45;;;;;;;7.17;3.45;;;;;;;8.14;100.00;99228.03;1809330;79;21095;-49
2021/03/17 06:32:13;;;;;;;9.28;3.60;;;;;;;8.09;100.00;99222.06;1809395;79;21383;-49
2021/03/17 06:34:49;;;;;;;9.23;3.10;;;;;;;8.06;100.00;99233.73;1809215;79;21157;-49
2021/03/17 06:37:38;;;;;;;8.23;3.20;;;;;;;7.99;100.00;99238.98;1809419;79;21047;-49
2021/03/17 06:40:29;;;;;;;9.05;3.12;;;;;;;7.97;100.00;99237.72;1809374;79;21094;-49
2021/03/17 06:43:06;;;;;;;7.58;2.92;;;;;;;8.14;100.00;99236.89;1809343;79;21114;-50
2021/03/17 06:45:46;;;;;;;7.95;2.75;;;;;;;8.24;100.00;99243.97;1785897;79;22038;-49
2021/03/17 06:48:28;;;;;;;9.68;3.22;;;;;;;8.21;100.00;99250.80;1810782;79;21106;-49
2021/03/17 06:51:15;;;;;;;5.95;2.90;;;;;;;8.11;99.66;99253.05;1765771;81;21562;-49
2021/03/17 06:53:53;;;;;;;12.50;3.37;;;;;;;8.02;99.19;99262.37;1782857;79;21126;-50
2021/03/17 06:56:38;;;;;;;6.45;2.85;;;;;;;7.89;97.85;99258.58;1777577;80;21122;-49
2021/03/17 06:59:09;;;;;;;6.75;3.12;;;;;;;7.80;97.06;99267.00;1737928;81;21214;-50
2021/03/17 07:01:46;;;;;;;10.13;3.20;;;;;;;7.71;96.52;99266.52;1756539;81;21134;-50
2021/03/17 07:04:17;;;;;;;6.70;2.80;;;;;;;7.66;95.93;99267.20;1790198;80;21146;-49
2021/03/17 07:06:47;;;;;;;9.10;3.27;;;;;;;7.64;95.66;99267.75;1776688;80;21154;-49
2021/03/17 07:09:21;;;;;;;10.55;3.62;;;;;;;7.62;95.69;99266.92;1792113;79;21603;-49
2021/03/17 07:11:51;;;;;;;10.98;3.50;;;;;;;7.66;96.15;99263.20;1789791;80;21706;-50
2021/03/17 07:14:26;;;;;;;17.60;3.85;;;;;;;7.80;95.47;99263.00;1793578;80;21466;-50
2021/03/17 07:16:54;;;;;;;11.38;3.40;;;;;;;8.05;95.48;99257.36;1793008;80;21399;-50
2021/03/17 07:19:39;;;;;;;14.60;3.85;;;;;;;8.58;94.73;99263.70;1776802;80;21188;-49
2021/03/17 07:22:14;;;;;;;7.75;3.40;;;;;;;9.16;92.63;99270.95;1784529;80;21130;-49
2021/03/17 07:24:44;;;;;;;7.85;3.20;;;;;;;9.29;88.46;99274.33;1770084;80;22240;-49
2021/03/17 07:27:18;;;;;;;10.35;3.00;;;;;;;9.05;87.58;99273.34;1782930;79;21433;-49
2021/03/17 07:30:06;;;;;;;10.48;3.52;;;;;;;8.80;87.79;99276.41;1780272;79;21154;-49
2021/03/17 07:33:03;;;;;;;9.45;3.17;;;;;;;8.53;88.48;99271.08;1758006;80;21134;-50
2021/03/17 07:35:33;;;;;;;10.25;3.80;;;;;;;8.26;89.12;99279.47;1806938;78;21161;-50
2021/03/17 07:38:07;;;;;;;7.15;2.70;;;;;;;8.07;89.94;99275.95;1764197;81;21565;-50
2021/03/17 07:40:39;;;;;;;5.83;2.85;;;;;;;7.96;90.33;99274.69;1791023;79;21130;-50
2021/03/17 07:43:10;;;;;;;6.35;3.00;;;;;;;7.84;91.21;99283.26;1783298;80;21073;-49
2021/03/17 07:45:38;;;;;;;7.42;3.10;;;;;;;7.82;92.18;99286.02;1789192;80;21221;-50
2021/03/17 07:48:08;;;;;;;5.65;3.52;;;;;;;7.81;92.22;99284.30;1828065;78;21185;-50
2021/03/17 07:50:38;;;;;;;10.28;3.58;;;;;;;7.84;92.52;99287.27;1795446;80;21265;-49
2021/03/17 07:53:10;;;;;;;7.40;3.50;;;;;;;7.87;92.79;99286.66;1827886;78;21497;-49
2021/03/17 07:55:39;;;;;;;10.78;3.87;;;;;;;7.92;92.87;99284.23;1795416;80;21070;-50
2021/03/17 07:58:07;;;;;;;14.87;3.98;;;;;;;7.98;93.07;99295.49;1828124;78;21506;-49
2021/03/17 08:00:37;;;;;;;7.97;3.30;;;;;;;8.03;92.94;99292.13;1795506;80;21589;-49
2021/03/17 08:03:05;;;;;;;12.53;3.40;;;;;;;8.03;91.75;99287.27;1828080;78;22201;-49
2021/03/17 08:05:36;;;;;;;14.00;4.03;;;;;;;7.95;91.94;99292.09;1795320;80;21133;-49
2021/03/17 08:08:05;;;;;;;13.30;4.10;;;;;;;7.96;92.43;99286.70;1828016;78;21133;-50
2021/03/17 08:10:40;;;;;;;16.23;4.50;;;;;;;8.01;92.84;99292.67;1795486;80;21592;-50
2021/03/17 08:13:07;;;;;;;24.50;4.37;;;;;;;8.09;92.71;99298.13;1827969;78;21042;-50
2021/03/17 08:15:37;;;;;;;15.55;3.95;;;;;;;8.15;92.53;99295.16;1795359;80;21089;-50
2021/03/17 08:18:33;;;;;;;6.20;3.80;;;;;;;8.19;92.49;99294.06;1807173;79;21122;-50
2021/03/17 08:21:04;;;;;;;7.42;4.45;;;;;;;8.19;91.91;99300.73;1788578;80;21169;-52
2021/03/17 08:23:41;;;;;;;6.47;3.92;;;;;;;8.16;92.18;99295.55;1804401;78;21106;-50
2021/03/17 08:26:13;;;;;;;11.48;4.10;;;;;;;8.14;92.22;99296.95;1816351;78;21097;-50
2021/03/17 08:28:52;;;;;;;12.28;4.15;;;;;;;8.06;92.49;99299.59;1789463;79;21555;-49
2021/03/17 08:31:42;;;;;;;8.53;3.65;;;;;;;7.99;92.96;99297.22;1780486;80;21153;-50
2021/03/17 08:34:23;;;;;;;9.50;4.17;;;;;;;7.93;93.54;99298.85;1781053;80;21114;-49
2021/03/17 08:36:59;;;;;;;11.53;4.05;;;;;;;7.85;93.57;99305.03;1782974;80;21203;-49
2021/03/17 08:39:36;;;;;;;8.05;3.77;;;;;;;7.82;94.30;99294.48;1780731;79;21111;-50
2021/03/17 08:42:28;;;;;;;8.30;4.80;;;;;;;7.74;95.29;99302.38;1795679;79;21386;-50
2021/03/17 08:45:19;;;;;;;8.83;4.30;;;;;;;7.66;95.30;99297.88;1873069;76;25953;-50
2021/03/17 08:47:47;;;;;;;9.43;4.47;;;;;;;7.53;95.49;99298.03;1834900;78;21110;-50
2021/03/17 08:50:27;;;;;;;6.58;4.08;;;;;;;7.37;95.84;99292.54;1838701;78;21370;-50
2021/03/17 08:52:56;;;;;;;7.92;3.90;;;;;;;7.29;96.60;99294.21;1840951;78;21167;-50
2021/03/17 08:55:37;;;;;;;8.68;4.45;;;;;;;7.21;97.41;99292.37;1840937;78;21041;-49
2021/03/17 08:58:06;;;;;;;7.65;3.83;;;;;;;7.05;98.21;99297.03;1841245;78;21079;-49
2021/03/17 09:01:00;;;;;;;8.95;4.20;;;;;;;6.96;98.94;99297.42;1832615;78;21143;-50
2021/03/17 09:03:39;;;;;;;8.53;4.85;;;;;;;6.95;99.44;99299.69;1808710;78;21348;-50
2021/03/17 09:06:26;;;;;;;10.48;5.05;;;;;;;6.90;99.66;99298.57;1815639;78;21168;-49
2021/03/17 09:09:05;;;;;;;7.40;4.60;;;;;;;6.87;100.00;99286.23;1839255;76;21043;-50
2021/03/17 09:11:39;;;;;;;9.25;5.30;;;;;;;6.88;100.00;99294.63;1736346;81;21058;-49
2021/03/17 09:14:07;;;;;;;11.90;5.05;;;;;;;6.95;100.00;99295.69;1767710;80;21085;-50
2021/03/17 09:16:37;;;;;;;16.95;5.20;;;;;;;7.05;100.00;99295.70;1769242;80;21524;-49
2021/03/17 09:19:13;;;;;;;8.78;5.58;;;;;;;7.19;100.00;99296.91;1740104;82;21556;-50
2021/03/17 09:21:44;;;;;;;12.33;5.60;;;;;;;7.31;100.00;99300.34;1761417;80;21507;-50
2021/03/17 09:24:33;;;;;;;13.83;6.35;;;;;;;7.42;100.00;99295.86;1766905;80;21045;-50
2021/03/17 09:27:07;;;;;;;16.48;5.37;;;;;;;7.55;100.00;99297.50;1768678;80;21501;-49
2021/03/17 09:29:35;;;;;;;9.68;5.15;;;;;;;7.63;100.00;99300.70;1759449;80;21239;-50
2021/03/17 09:32:03;;;;;;;10.68;4.92;;;;;;;7.70;100.00;99299.47;1768468;80;21160;-50
2021/03/17 09:34:33;;;;;;;12.00;4.83;;;;;;;7.79;100.00;99298.17;1758471;80;21156;-49
2021/03/17 09:37:06;;;;;;;9.85;5.17;;;;;;;7.85;100.00;99305.88;1760138;80;21146;-49
2021/03/17 09:39:35;;;;;;;9.18;4.80;;;;;;;7.99;99.76;99313.23;1771544;80;21157;-50
2021/03/17 09:42:03;;;;;;;8.53;4.90;;;;;;;8.14;98.89;99310.78;1766059;80;21368;-50
2021/03/17 09:44:31;;;;;;;10.78;5.12;;;;;;;8.30;98.21;99314.45;1776059;80;21093;-50
2021/03/17 09:47:04;;;;;;;9.50;4.95;;;;;;;8.49;97.27;99302.84;1760079;81;21199;-50
2021/03/17 09:49:34;;;;;;;9.03;3.52;;;;;;;8.64;96.03;99305.73;1783286;79;21168;-49
2021/03/17 09:52:03;;;;;;;9.13;4.20;;;;;;;8.74;94.60;99307.86;1799231;79;21091;-51
2021/03/17 09:54:32;;;;;;;7.55;4.35;;;;;;;8.81;93.13;99317.77;1798613;79;21314;-49
2021/03/17 09:57:07;;;;;;;11.73;4.50;;;;;;;8.75;92.18;99314.08;1798653;79;21066;-50
2021/03/17 09:59:40;;;;;;;12.50;5.42;;;;;;;8.74;92.30;99304.34;1798263;79;21165;-50
2021/03/17 10:02:22;;;;;;;8.33;4.50;;;;;;;8.82;92.87;99311.48;1798668;79;21157;-50
2021/03/17 10:04:51;;;;;;;10.63;5.45;;;;;;;8.92;92.60;99309.66;1798619;79;21138;-51
2021/03/17 10:07:22;;;;;;;7.25;4.37;;;;;;;8.99;92.60;99313.77;1798630;79;22255;-51
2021/03/17 10:09:51;;;;;;;9.10;4.62;;;;;;;9.03;91.73;99309.98;1798425;79;21212;-50
2021/03/17 10:12:21;;;;;;;11.45;4.30;;;;;;;9.06;91.12;99331.22;1798553;79;21146;-50
2021/03/17 10:14:53;;;;;;;11.10;3.90;;;;;;;9.02;90.37;99317.13;1798621;79;21127;-51
2021/03/17 10:17:23;;;;;;;12.05;4.22;;;;;;;8.96;90.39;99319.28;1798612;79;21066;-51
2021/03/17 10:19:55;;;;;;;6.78;4.03;;;;;;;8.94;90.21;99318.46;1798526;79;21175;-50
2021/03/17 10:22:25;;;;;;;9.65;3.80;;;;;;;8.94;90.51;99313.12;1790090;79;21279;-51
2021/03/17 10:24:57;;;;;;;10.60;4.25;;;;;;;8.92;90.61;99312.34;1769473;79;21644;-50
2021/03/17 10:27:29;;;;;;;11.57;4.67;;;;;;;8.84;90.54;99315.39;1796058;79;21152;-50
2021/03/17 10:30:09;;;;;;;9.18;4.45;;;;;;;8.69;90.96;99311.70;1798401;79;21125;-50
2021/03/17 10:32:39;;;;;;;12.58;3.75;;;;;;;8.56;91.56;99327.02;1796100;79;21179;-49
2021/03/17 10:35:12;;;;;;;10.68;3.00;;;;;;;8.42;91.59;99309.43;1789184;79;21203;-49
2021/03/17 10:37:40;;;;;;;11.70;3.83;;;;;;;8.23;91.72;99311.66;1766975;81;21570;-50
2021/03/17 10:40:18;;;;;;;13.28;4.08;;;;;;;7.98;92.87;99320.84;1767020;79;21121;-49
2021/03/17 10:42:55;;;;;;;13.05;5.25;;;;;;;7.86;93.62;99307.61;1778402;79;21149;-49
2021/03/17 10:45:25;;;;;;;10.85;5.45;;;;;;;7.77;94.98;99312.51;1788334;80;21360;-50
2021/03/17 10:47:53;;;;;;;10.48;5.42;;;;;;;7.69;95.12;99303.07;1774208;80;21075;-50
2021/03/17 10:50:35;;;;;;;10.78;4.53;;;;;;;7.65;95.88;99305.94;1758396;80;21123;-51
2021/03/17 10:53:24;;;;;;;11.05;4.12;;;;;;;7.63;96.52;99303.36;1758124;81;21042;-51
2021/03/17 10:55:53;;;;;;;10.65;5.17;;;;;;;7.57;96.22;99310.29;1768162;80;21200;-50
2021/03/17 10:58:24;;;;;;;15.75;4.30;;;;;;;7.51;96.47;99315.91;1785021;80;21188;-50
2021/03/17 11:00:54;;;;;;;15.35;4.28;;;;;;;7.48;97.09;99309.39;1771097;78;21165;-51
2021/03/17 11:03:30;;;;;;;22.40;5.00;;;;;;;7.50;97.26;99317.70;1784330;78;21534;-49
2021/03/17 11:06:20;;;;;;;13.50;4.17;;;;;;;7.50;97.41;99314.18;1813236;78;21147;-50
2021/03/17 11:09:05;;;;;;;8.30;4.62;;;;;;;7.57;98.30;99312.50;1798158;79;21101;-50
2021/03/17 11:11:50;;;;;;;10.60;4.83;;;;;;;7.70;98.29;99311.47;1797905;79;21157;-51
2021/03/17 11:14:35;;;;;;;11.48;4.17;;;;;;;7.85;97.45;99319.70;1796973;79;21189;-52
2021/03/17 11:17:08;;;;;;;7.00;3.77;;;;;;;7.92;96.04;99320.27;1789232;79;22237;-49
2021/03/17 11:19:38;;;;;;;6.85;3.17;;;;;;;7.91;95.55;99317.20;1791655;79;21178;-50
2021/03/17 11:22:06;;;;;;;7.78;4.12;;;;;;;7.93;95.10;99308.20;1791562;80;21142;-50
2021/03/17 11:24:34;;;;;;;11.97;3.60;;;;;;;7.97;94.74;99315.11;1792564;80;21427;-50
2021/03/17 11:27:02;;;;;;;15.05;4.00;;;;;;;8.01;94.47;99318.03;1771160;80;21448;-50
2021/03/17 11:29:31;;;;;;;7.28;3.27;;;;;;;8.06;94.26;99315.60;1761545;80;21141;-50
2021/03/17 11:32:08;;;;;;;12.90;3.45;;;;;;;8.14;93.80;99320.97;1759827;80;21214;-50
2021/03/17 11:34:38;;;;;;;7.28;3.42;;;;;;;8.16;93.14;99322.25;1765304;81;21143;-50
2021/03/17 11:37:05;;;;;;;8.95;3.83;;;;;;;8.11;92.50;99315.78;1766174;81;21886;-50
2021/03/17 11:39:34;;;;;;;6.58;3.37;;;;;;;8.00;92.34;99310.96;1768606;79;21141;-51
2021/03/17 11:42:03;;;;;;;7.00;3.33;;;;;;;7.92;92.50;99307.80;1782233;79;21152;-50
2021/03/17 11:44:31;;;;;;;7.78;3.33;;;;;;;7.80;93.07;99305.23;1775530;79;21098;-49
2021/03/17 11:46:58;;;;;;;9.55;3.67;;;;;;;7.70;93.53;99304.80;1763387;79;21096;-50
2021/03/17 11:49:27;;;;;;;9.00;3.80;;;;;;;7.58;93.69;99298.23;1767233;80;21219;-49
2021/03/17 11:51:54;;;;;;;7.75;3.92;;;;;;;7.40;93.71;99316.39;1773052;80;21057;-58
2021/03/17 11:54:25;;;;;;;9.30;3.10;;;;;;;7.35;94.50;99316.59;1755248;81;21085;-57
2021/03/17 11:56:53;;;;;;;9.50;3.25;;;;;;;7.31;94.55;99312.34;1771476;80;21172;-57
2021/03/17 11:59:21;;;;;;;12.58;3.40;;;;;;;7.25;94.74;99302.80;1772276;79;21111;-57
2021/03/17 12:01:49;;;;;;;4.97;3.40;;;;;;;7.22;95.18;99309.61;1762072;80;21345;-57